Terminal Aerodrome Forecast
Issued by NWS Portland, OR

Home | Current Version | Previous Version | Text Only | Print | Product List | Glossary On
Versions: 1 2 3 4 5 6 7 8 9 10 11 12 13 14 15 16 17 18 19 20 21 22 23 24 25 26 27 28
000
FTUS46 KPQR 170525
TAFEUG
TAF
KEUG 170525Z 1706/1806 24007KT P6SM FEW100 BKN250
     FM170900 VRB02KT P6SM SCT100 BKN250
     FM171800 36007KT P6SM SCT100 BKN250
     FM180000 32006KT P6SM VCSH BKN050 BKN100=

USA.gov is the U.S. government's official web portal to all federal, state and local government web resources and services.